Time;durP1;ratioP1;P1;durP2;ratioP2;P2;SDS_P1;SDS_P2;PMS_P1;PMS_P2;Temp;Humidity;BMP_temperature;BMP_pressure;BME280_temperature;BME280_humidity;BME280_pressure;Samples;Min_cycle;Max_cycle;Signal;HPM_P1;HPM_P2
2022/08/20 00:00:29;;;;;;;2.00;1.90;;;24.70;48.80;;;;;;5046220;28;20524;-67
2022/08/20 00:03:02;;;;;;;2.07;1.97;;;24.70;48.80;;;;;;5048821;28;20986;-67
2022/08/20 00:05:37;;;;;;;1.80;1.70;;;24.70;48.80;;;;;;5044910;28;20466;-67
2022/08/20 00:08:04;;;;;;;2.00;1.90;;;24.70;48.80;;;;;;5050746;28;21618;-67
2022/08/20 00:10:31;;;;;;;1.90;1.80;;;24.70;48.80;;;;;;5050020;28;20464;-68
2022/08/20 00:12:57;;;;;;;2.50;2.30;;;24.70;48.80;;;;;;5045805;28;20466;-67
2022/08/20 00:15:28;;;;;;;1.90;1.80;;;24.70;48.80;;;;;;5046628;28;20464;-66
2022/08/20 00:17:56;;;;;;;1.93;1.83;;;24.70;48.80;;;;;;5044635;28;20224;-67
2022/08/20 00:20:25;;;;;;;2.10;2.00;;;24.70;48.80;;;;;;5045302;28;20805;-68
2022/08/20 00:22:50;;;;;;;2.10;2.00;;;24.70;48.80;;;;;;5048918;28;20473;-67
2022/08/20 00:25:17;;;;;;;1.97;1.87;;;24.70;48.80;;;;;;5053921;28;20439;-67
2022/08/20 00:27:43;;;;;;;1.83;1.73;;;24.70;48.80;;;;;;5046676;28;20244;-67
2022/08/20 00:30:11;;;;;;;2.00;1.90;;;24.70;48.80;;;;;;5045500;28;20463;-67
2022/08/20 00:32:52;;;;;;;2.13;1.90;;;24.70;48.80;;;;;;5046911;28;20260;-67
2022/08/20 00:35:20;;;;;;;1.90;1.80;;;24.70;48.80;;;;;;5047445;28;20466;-68
2022/08/20 00:37:46;;;;;;;1.90;1.80;;;24.70;48.80;;;;;;5047695;28;20462;-67
2022/08/20 00:40:17;;;;;;;1.93;1.70;;;24.70;48.80;;;;;;5050687;28;20450;-68
2022/08/20 00:42:49;;;;;;;2.43;2.20;;;24.70;48.80;;;;;;5044074;28;20731;-67
2022/08/20 00:45:16;;;;;;;2.33;2.23;;;24.70;48.80;;;;;;5047466;28;20469;-67
2022/08/20 00:47:42;;;;;;;1.93;1.83;;;24.70;48.80;;;;;;5043848;28;20470;-67
2022/08/20 00:50:14;;;;;;;2.30;2.20;;;24.70;48.80;;;;;;5046348;28;20607;-67
2022/08/20 00:52:41;;;;;;;2.00;1.90;;;24.70;49.60;;;;;;5043908;28;20228;-68
2022/08/20 00:55:08;;;;;;;2.20;2.10;;;24.70;48.80;;;;;;5050728;28;20450;-67
2022/08/20 00:57:38;;;;;;;2.20;2.10;;;24.70;48.80;;;;;;5048911;28;20465;-67
2022/08/20 01:00:15;;;;;;;1.80;1.70;;;24.70;48.90;;;;;;5044465;28;21419;-67
2022/08/20 01:02:41;;;;;;;2.00;1.90;;;24.70;48.90;;;;;;5044803;28;20476;-67
2022/08/20 01:05:08;;;;;;;2.07;1.97;;;24.70;48.80;;;;;;5046394;28;20463;-68
2022/08/20 01:07:35;;;;;;;1.90;1.80;;;24.70;48.80;;;;;;5046309;28;20461;-67
2022/08/20 01:10:07;;;;;;;2.00;1.73;;;24.70;48.90;;;;;;5050872;28;20964;-67
2022/08/20 01:12:33;;;;;;;2.40;2.30;;;24.70;49.50;;;;;;5045824;28;20835;-67
2022/08/20 01:15:00;;;;;;;2.10;2.00;;;24.70;49.00;;;;;;5041236;28;20462;-67
2022/08/20 01:17:31;;;;;;;2.07;1.97;;;24.70;49.00;;;;;;5042950;28;20680;-67
2022/08/20 01:20:00;;;;;;;2.90;2.20;;;24.70;49.10;;;;;;5042176;28;20535;-67
2022/08/20 01:25:52;;;;;;;1.93;1.83;;;24.70;49.10;;;;;;5044058;28;21338;-68
2022/08/20 01:28:22;;;;;;;2.20;2.10;;;24.70;49.20;;;;;;5052446;28;20477;-67
2022/08/20 01:30:48;;;;;;;2.30;2.20;;;24.70;49.20;;;;;;5045178;28;20808;-67
2022/08/20 01:33:15;;;;;;;2.13;2.03;;;24.70;49.20;;;;;;5043807;28;20465;-67
2022/08/20 01:35:42;;;;;;;1.80;1.70;;;24.70;49.30;;;;;;5047129;28;20252;-67
2022/08/20 01:38:09;;;;;;;2.07;1.97;;;24.70;49.30;;;;;;5044166;28;20944;-67
2022/08/20 01:40:43;;;;;;;1.90;1.80;;;24.70;49.30;;;;;;5047163;28;20481;-67
2022/08/20 01:43:09;;;;;;;2.27;2.00;;;24.70;49.30;;;;;;5048414;28;20547;-67
2022/08/20 01:45:35;;;;;;;2.10;2.00;;;24.70;49.40;;;;;;5043636;28;20466;-67
2022/08/20 01:48:01;;;;;;;3.77;2.30;;;24.70;49.40;;;;;;5042463;28;20469;-67
2022/08/20 01:50:31;;;;;;;2.00;1.90;;;24.70;49.40;;;;;;5045160;28;21527;-66
2022/08/20 01:53:05;;;;;;;1.90;1.80;;;24.70;49.40;;;;;;5045497;28;20501;-68
2022/08/20 01:55:31;;;;;;;2.10;2.00;;;24.70;49.40;;;;;;5044963;28;20913;-68
2022/08/20 01:57:57;;;;;;;2.27;2.17;;;24.70;49.50;;;;;;5054362;28;21012;-67
2022/08/20 02:00:24;;;;;;;1.90;1.80;;;24.70;49.50;;;;;;5045386;28;20594;-65
2022/08/20 02:02:50;;;;;;;2.00;1.90;;;24.70;49.50;;;;;;5046555;28;20461;-67
2022/08/20 02:05:16;;;;;;;2.00;1.90;;;24.70;49.50;;;;;;5043886;28;20447;-67
2022/08/20 02:07:42;;;;;;;2.17;2.07;;;24.70;49.50;;;;;;5045847;28;20564;-67
2022/08/20 02:10:10;;;;;;;2.20;2.10;;;24.70;49.50;;;;;;5044900;28;20463;-66
2022/08/20 02:12:38;;;;;;;2.10;2.00;;;24.70;49.50;;;;;;5048325;28;20221;-67
2022/08/20 02:15:07;;;;;;;1.97;1.87;;;24.70;49.60;;;;;;5040933;28;20492;-67
2022/08/20 02:17:33;;;;;;;2.30;2.20;;;24.70;49.60;;;;;;5043271;28;20458;-67
2022/08/20 02:20:09;;;;;;;2.10;2.00;;;24.70;50.40;;;;;;5043274;28;20517;-67
2022/08/20 02:22:38;;;;;;;1.90;1.80;;;24.70;49.60;;;;;;5046139;28;21134;-67
2022/08/20 02:25:06;;;;;;;2.10;2.00;;;24.70;49.70;;;;;;5041684;28;20467;-67
2022/08/20 02:27:32;;;;;;;1.80;1.70;;;24.70;49.60;;;;;;5045949;28;20507;-67
2022/08/20 02:29:57;;;;;;;2.23;2.03;;;24.70;49.70;;;;;;5057320;28;20443;-67
2022/08/20 02:32:24;;;;;;;2.07;1.97;;;24.70;49.70;;;;;;5044756;28;20224;-65
2022/08/20 02:34:49;;;;;;;1.93;1.83;;;24.70;49.70;;;;;;5045684;28;20267;-67
2022/08/20 02:37:17;;;;;;;2.37;2.17;;;24.70;49.70;;;;;;5043791;28;20549;-67
2022/08/20 02:39:44;;;;;;;1.97;1.87;;;24.70;49.70;;;;;;5044015;28;20229;-67
2022/08/20 02:42:11;;;;;;;1.80;1.70;;;24.70;49.70;;;;;;5044962;28;20776;-67
2022/08/20 02:44:38;;;;;;;2.30;2.20;;;24.70;49.70;;;;;;5045516;28;21826;-67
2022/08/20 02:47:05;;;;;;;1.97;1.87;;;24.70;49.80;;;;;;5041915;28;21091;-68
2022/08/20 02:49:31;;;;;;;1.93;1.83;;;24.70;49.70;;;;;;5046009;28;20473;-67
2022/08/20 02:51:56;;;;;;;2.10;2.00;;;24.70;49.70;;;;;;5048346;28;20470;-67
2022/08/20 02:54:23;;;;;;;2.30;2.20;;;24.70;49.70;;;;;;5047102;28;20776;-65
2022/08/20 02:56:49;;;;;;;2.23;2.13;;;24.70;50.50;;;;;;5047376;28;20233;-67
2022/08/20 02:59:14;;;;;;;1.90;1.80;;;24.70;49.80;;;;;;5048704;28;20458;-67
2022/08/20 03:01:40;;;;;;;1.87;1.77;;;24.70;49.80;;;;;;5046325;28;20881;-67
2022/08/20 03:04:06;;;;;;;1.90;1.80;;;24.70;49.80;;;;;;5046602;28;20307;-67
2022/08/20 03:06:32;;;;;;;1.80;1.70;;;24.70;49.80;;;;;;5046583;28;20303;-67
2022/08/20 03:08:57;;;;;;;1.80;1.70;;;24.70;49.80;;;;;;5047668;28;20247;-68
2022/08/20 03:11:23;;;;;;;2.00;1.80;;;24.70;49.80;;;;;;5047267;28;20289;-67
2022/08/20 03:13:49;;;;;;;2.10;2.00;;;24.70;49.80;;;;;;5053955;28;20217;-67
2022/08/20 03:16:14;;;;;;;1.73;1.63;;;24.70;49.80;;;;;;5049688;28;20702;-67
2022/08/20 03:18:44;;;;;;;2.10;2.00;;;24.70;49.80;;;;;;5046858;28;20282;-67
2022/08/20 03:21:10;;;;;;;2.00;1.90;;;24.70;49.90;;;;;;5046225;28;20363;-67
2022/08/20 03:23:37;;;;;;;2.20;1.90;;;24.70;49.90;;;;;;5050423;28;20457;-67
2022/08/20 03:26:08;;;;;;;2.20;2.10;;;24.70;49.90;;;;;;5047258;28;20461;-67
2022/08/20 03:28:34;;;;;;;2.03;1.83;;;24.70;49.90;;;;;;5049187;28;20806;-67
2022/08/20 03:31:00;;;;;;;2.40;2.30;;;24.70;49.90;;;;;;5049491;28;20469;-67
2022/08/20 03:33:27;;;;;;;2.30;2.20;;;24.70;49.90;;;;;;5047583;28;20462;-67
2022/08/20 03:35:52;;;;;;;1.67;1.57;;;24.70;49.90;;;;;;5045439;28;20493;-65
2022/08/20 03:38:22;;;;;;;2.00;1.90;;;24.70;50.00;;;;;;5047200;28;22038;-68
2022/08/20 03:40:48;;;;;;;2.10;1.90;;;24.70;49.90;;;;;;5047675;28;20240;-67
2022/08/20 03:43:14;;;;;;;2.20;2.10;;;24.70;50.00;;;;;;5045072;28;20446;-67
2022/08/20 03:45:42;;;;;;;1.93;1.83;;;24.70;50.00;;;;;;5048311;27;20508;-67
2022/08/20 03:48:11;;;;;;;2.17;2.07;;;24.70;50.00;;;;;;5056017;28;20221;-66
2022/08/20 03:50:40;;;;;;;2.43;2.20;;;24.70;50.00;;;;;;5049164;28;20589;-67
2022/08/20 03:53:07;;;;;;;2.40;2.30;;;24.70;50.00;;;;;;5044640;28;20794;-67
2022/08/20 03:55:33;;;;;;;1.93;1.83;;;24.70;50.00;;;;;;5052008;28;20549;-67
2022/08/20 03:58:05;;;;;;;1.80;1.70;;;24.70;50.10;;;;;;5047519;28;20511;-67
2022/08/20 04:00:44;;;;;;;2.10;2.00;;;24.70;50.00;;;;;;5053334;28;20330;-67
2022/08/20 04:03:10;;;;;;;2.00;1.90;;;24.70;50.10;;;;;;5047452;28;20466;-66
2022/08/20 04:05:39;;;;;;;2.70;2.50;;;24.70;50.10;;;;;;5047508;28;20539;-67
2022/08/20 04:08:10;;;;;;;2.10;2.00;;;24.70;50.10;;;;;;5047263;28;20225;-67
2022/08/20 04:10:36;;;;;;;2.30;2.20;;;24.70;50.10;;;;;;5047380;28;20454;-66
2022/08/20 04:13:04;;;;;;;2.10;2.00;;;24.70;50.10;;;;;;5048252;28;20477;-67
2022/08/20 04:15:31;;;;;;;2.17;2.07;;;24.70;50.10;;;;;;5047891;28;20461;-67
2022/08/20 04:17:57;;;;;;;1.90;1.80;;;24.70;50.10;;;;;;5050398;28;20470;-67
2022/08/20 04:20:24;;;;;;;2.20;2.10;;;24.70;50.10;;;;;;5050632;28;20553;-66
2022/08/20 04:22:52;;;;;;;2.80;2.60;;;24.70;50.20;;;;;;5046909;28;20457;-67
2022/08/20 04:25:18;;;;;;;2.10;2.00;;;24.70;50.10;;;;;;5045472;28;20447;-67
2022/08/20 04:27:45;;;;;;;2.30;2.10;;;24.70;50.10;;;;;;5047120;28;20493;-67
2022/08/20 04:30:13;;;;;;;2.13;2.03;;;24.70;50.10;;;;;;5044025;28;20225;-67
2022/08/20 04:32:40;;;;;;;2.23;2.13;;;24.70;50.20;;;;;;5047779;28;20466;-67
2022/08/20 04:35:07;;;;;;;2.10;2.00;;;24.70;50.20;;;;;;5045905;28;20454;-67
2022/08/20 04:37:33;;;;;;;2.53;2.33;;;24.70;50.20;;;;;;5053954;28;20461;-67
2022/08/20 04:42:53;;;;;;;2.13;2.03;;;24.70;50.20;;;;;;5047100;28;20236;-66
2022/08/20 04:45:20;;;;;;;1.93;1.83;;;24.70;50.20;;;;;;5045308;28;20451;-68
2022/08/20 04:47:46;;;;;;;2.37;2.27;;;24.70;50.20;;;;;;5065582;28;20302;-75
2022/08/20 04:50:12;;;;;;;2.40;2.23;;;24.70;50.20;;;;;;5050945;28;21870;-72
2022/08/20 04:52:38;;;;;;;2.37;2.20;;;24.70;50.20;;;;;;5045199;28;20741;-69
2022/08/20 04:55:05;;;;;;;2.00;1.90;;;24.70;50.10;;;;;;5041574;28;20584;-70
2022/08/20 04:57:31;;;;;;;2.17;2.07;;;24.70;50.20;;;;;;5046721;28;20213;-69
2022/08/20 04:59:57;;;;;;;2.33;1.83;;;24.70;50.20;;;;;;5044156;28;20510;-68
2022/08/20 05:02:22;;;;;;;2.10;2.00;;;24.70;50.20;;;;;;5046738;28;20895;-68
2022/08/20 05:04:48;;;;;;;2.53;2.33;;;24.70;50.10;;;;;;5047003;28;20724;-68
2022/08/20 05:07:15;;;;;;;2.70;2.00;;;24.70;50.10;;;;;;5046816;28;20283;-68
2022/08/20 05:09:41;;;;;;;1.83;1.73;;;24.70;50.20;;;;;;5047586;28;20221;-67
2022/08/20 05:12:09;;;;;;;2.30;2.20;;;24.70;50.20;;;;;;5044491;28;20471;-68
2022/08/20 05:14:34;;;;;;;2.27;2.17;;;24.70;50.20;;;;;;5047808;28;20473;-67
2022/08/20 05:17:04;;;;;;;2.10;2.00;;;24.70;50.20;;;;;;5049604;28;20512;-67
2022/08/20 05:19:30;;;;;;;1.87;1.77;;;24.70;50.20;;;;;;5051302;28;20433;-68
2022/08/20 05:21:56;;;;;;;2.13;2.00;;;24.70;50.20;;;;;;5044448;28;20542;-67
2022/08/20 05:24:23;;;;;;;1.80;1.70;;;24.70;50.20;;;;;;5045738;28;20509;-67
2022/08/20 05:26:48;;;;;;;2.10;2.00;;;24.70;50.20;;;;;;5044694;28;20456;-68
2022/08/20 05:29:14;;;;;;;2.10;2.00;;;24.70;50.20;;;;;;5042293;28;20454;-67
2022/08/20 05:31:41;;;;;;;2.00;1.90;;;24.70;50.20;;;;;;5047809;28;20225;-67
2022/08/20 05:34:10;;;;;;;1.90;1.80;;;24.70;50.30;;;;;;5049809;28;20217;-67
2022/08/20 05:36:38;;;;;;;2.37;2.27;;;24.70;50.20;;;;;;5044987;28;20466;-69
2022/08/20 05:39:04;;;;;;;2.03;1.93;;;24.80;50.40;;;;;;5045142;28;20470;-69
2022/08/20 05:41:30;;;;;;;1.97;1.87;;;24.80;50.30;;;;;;5043345;28;20470;-69
2022/08/20 05:43:59;;;;;;;2.00;1.90;;;24.80;50.30;;;;;;5046237;28;20620;-68
2022/08/20 05:46:24;;;;;;;1.90;1.80;;;24.80;50.40;;;;;;5049185;28;20332;-69
2022/08/20 05:48:50;;;;;;;1.97;1.87;;;24.80;50.30;;;;;;5050045;28;20457;-68
2022/08/20 05:51:16;;;;;;;2.07;1.97;;;24.80;50.30;;;;;;5051786;28;20301;-68
2022/08/20 05:53:42;;;;;;;2.07;1.97;;;24.80;50.30;;;;;;5048646;28;20218;-68
2022/08/20 05:56:10;;;;;;;2.00;1.90;;;24.80;50.30;;;;;;5051916;28;20218;-67
2022/08/20 05:58:36;;;;;;;1.80;1.70;;;24.80;50.40;;;;;;5049981;28;20452;-68
2022/08/20 06:01:03;;;;;;;2.00;1.90;;;24.80;50.40;;;;;;5049534;28;20466;-68
2022/08/20 06:06:13;;;;;;;2.20;2.10;;;24.80;50.40;;;;;;5049886;28;20674;-68
2022/08/20 06:08:39;;;;;;;2.43;2.33;;;24.80;50.40;;;;;;5044878;28;21029;-67
2022/08/20 06:11:05;;;;;;;3.53;3.33;;;24.80;50.40;;;;;;5046101;28;20224;-67
2022/08/20 06:13:30;;;;;;;2.60;2.50;;;24.80;50.40;;;;;;5043569;28;20461;-67
2022/08/20 06:15:56;;;;;;;2.73;2.63;;;24.80;50.40;;;;;;5043547;28;20229;-68
2022/08/20 06:18:22;;;;;;;3.23;3.03;;;24.80;50.40;;;;;;5050676;28;20228;-68
2022/08/20 06:20:49;;;;;;;3.20;3.00;;;24.80;50.40;;;;;;5050460;28;20504;-68
2022/08/20 06:23:15;;;;;;;3.70;3.50;;;24.80;50.40;;;;;;5040904;28;20228;-67
2022/08/20 06:25:41;;;;;;;3.80;3.50;;;24.80;50.50;;;;;;5045846;28;20453;-68
2022/08/20 06:28:07;;;;;;;3.80;3.60;;;24.80;51.20;;;;;;5049443;28;20508;-67
2022/08/20 06:30:33;;;;;;;4.17;3.97;;;24.80;50.40;;;;;;5048945;28;20965;-70
2022/08/20 06:32:59;;;;;;;4.37;4.07;;;24.80;50.50;;;;;;5047841;28;20221;-72
2022/08/20 06:35:25;;;;;;;3.70;3.50;;;24.80;50.50;;;;;;5045069;28;21047;-69
2022/08/20 06:37:51;;;;;;;4.03;3.83;;;24.80;50.40;;;;;;5049310;28;20221;-69
2022/08/20 06:40:23;;;;;;;4.30;4.10;;;24.80;50.40;;;;;;5046097;28;20410;-68
2022/08/20 06:42:49;;;;;;;5.17;4.87;;;24.80;50.50;;;;;;5052935;28;20465;-68
2022/08/20 06:45:24;;;;;;;4.70;4.50;;;24.80;50.50;;;;;;5047233;28;20450;-67
2022/08/20 06:47:51;;;;;;;5.40;5.10;;;24.80;50.50;;;;;;5049811;28;20439;-67
2022/08/20 06:50:20;;;;;;;5.03;4.73;;;24.80;50.50;;;;;;5050029;28;20446;-68
2022/08/20 06:52:46;;;;;;;5.23;4.93;;;24.80;50.50;;;;;;5048352;28;20479;-67
2022/08/20 06:55:14;;;;;;;5.90;5.60;;;24.80;50.50;;;;;;5054140;28;20461;-70
2022/08/20 06:57:39;;;;;;;6.13;5.70;;;24.80;50.50;;;;;;5049456;28;20469;-67
2022/08/20 07:00:23;;;;;;;6.10;5.70;;;24.80;50.50;;;;;;5054196;28;20475;-66
2022/08/20 07:02:48;;;;;;;5.90;5.60;;;24.80;50.50;;;;;;5050326;28;20233;-67
2022/08/20 07:05:15;;;;;;;5.87;5.40;;;24.80;50.50;;;;;;5045831;28;20450;-67
2022/08/20 07:07:45;;;;;;;5.30;5.10;;;24.80;50.50;;;;;;5043114;28;20244;-68
2022/08/20 07:10:16;;;;;;;5.97;5.67;;;24.80;50.50;;;;;;5042275;28;20474;-69
2022/08/20 07:12:42;;;;;;;5.70;5.30;;;24.80;50.50;;;;;;5044177;28;20464;-68
2022/08/20 07:15:10;;;;;;;5.90;5.60;;;24.80;50.50;;;;;;5043433;28;21033;-68
2022/08/20 07:17:36;;;;;;;6.97;6.47;;;24.80;50.50;;;;;;5040887;28;20225;-68
2022/08/20 07:20:12;;;;;;;6.10;5.73;;;24.80;50.50;;;;;;5045558;28;20511;-68
2022/08/20 07:22:38;;;;;;;5.83;5.53;;;24.80;50.40;;;;;;5043760;28;20515;-68
2022/08/20 07:25:06;;;;;;;6.33;5.93;;;24.80;50.50;;;;;;5043340;28;20918;-68
2022/08/20 07:27:32;;;;;;;6.40;5.90;;;24.80;50.40;;;;;;5045196;28;20253;-68
2022/08/20 07:32:43;;;;;;;7.20;6.67;;;24.80;50.40;;;;;;5041469;28;20837;-68
2022/08/20 07:35:14;;;;;;;5.80;5.50;;;24.80;50.40;;;;;;5046854;28;21033;-68
2022/08/20 07:37:42;;;;;;;6.27;5.87;;;24.80;50.40;;;;;;5050713;28;20466;-68
2022/08/20 07:40:11;;;;;;;6.67;6.00;;;24.80;50.40;;;;;;5053802;28;20502;-68
2022/08/20 07:42:38;;;;;;;7.27;6.37;;;24.80;50.30;;;;;;5043240;28;20532;-67
2022/08/20 07:45:05;;;;;;;7.23;6.00;;;24.80;50.30;;;;;;5045587;28;20556;-69
2022/08/20 07:47:34;;;;;;;8.37;5.77;;;24.80;50.30;;;;;;5047575;28;20465;-68
2022/08/20 07:50:01;;;;;;;5.33;4.87;;;24.80;50.30;;;;;;5048786;28;20458;-67
2022/08/20 07:52:27;;;;;;;5.70;5.20;;;24.80;50.20;;;;;;5049711;28;20865;-66
2022/08/20 07:54:52;;;;;;;15.23;5.47;;;24.80;50.20;;;;;;5048327;28;20949;-67
2022/08/20 07:57:18;;;;;;;8.17;5.63;;;24.80;50.10;;;;;;5049221;28;20225;-68
2022/08/20 07:59:45;;;;;;;5.17;4.87;;;24.80;50.10;;;;;;5046618;28;20240;-67
2022/08/20 08:02:11;;;;;;;6.23;5.77;;;24.80;50.00;;;;;;5046482;28;20229;-64
2022/08/20 08:04:37;;;;;;;5.93;5.40;;;24.80;50.00;;;;;;5048879;28;20502;-67
2022/08/20 08:07:04;;;;;;;6.13;5.53;;;24.80;49.80;;;;;;5051005;28;20470;-68
2022/08/20 08:09:32;;;;;;;5.93;5.53;;;24.80;49.80;;;;;;5045912;28;20465;-67
2022/08/20 08:12:01;;;;;;;4.73;4.43;;;24.80;49.70;;;;;;5048462;28;20497;-68
2022/08/20 08:14:30;;;;;;;7.57;5.67;;;24.80;49.80;;;;;;5041733;28;20465;-68
2022/08/20 08:17:00;;;;;;;5.50;5.13;;;24.80;49.70;;;;;;5041858;28;20458;-69
2022/08/20 08:19:36;;;;;;;48.97;7.83;;;24.80;49.70;;;;;;5041889;28;20468;-65
2022/08/20 08:22:03;;;;;;;6.67;5.13;;;24.80;49.80;;;;;;5042578;28;20844;-67
2022/08/20 08:24:29;;;;;;;6.03;5.40;;;24.80;49.70;;;;;;5044391;28;20499;-68
2022/08/20 08:26:54;;;;;;;5.83;5.43;;;24.80;49.70;;;;;;5044119;28;20472;-69
2022/08/20 08:29:20;;;;;;;13.90;6.23;;;24.80;49.60;;;;;;5041684;28;20236;-69
2022/08/20 08:31:45;;;;;;;10.43;6.57;;;24.80;49.60;;;;;;5043004;28;20244;-69
2022/08/20 08:34:11;;;;;;;9.50;5.63;;;24.80;49.50;;;;;;5041807;28;20221;-69
2022/08/20 08:36:38;;;;;;;10.50;5.53;;;24.80;49.40;;;;;;5042136;28;20312;-69
2022/08/20 08:39:04;;;;;;;17.77;6.63;;;24.80;49.50;;;;;;5054268;28;20484;-69
2022/08/20 08:41:46;;;;;;;16.33;7.20;;;24.80;49.40;;;;;;5045423;28;20678;-69
2022/08/20 08:44:21;;;;;;;15.80;6.13;;;24.80;49.50;;;;;;5045576;28;20461;-69
2022/08/20 08:46:50;;;;;;;9.83;6.10;;;24.80;49.40;;;;;;5043918;28;20472;-71
2022/08/20 08:49:21;;;;;;;12.53;5.20;;;24.80;49.50;;;;;;5046746;28;20955;-68
2022/08/20 08:51:54;;;;;;;8.57;4.97;;;24.80;49.50;;;;;;5045636;28;20458;-68
2022/08/20 08:54:23;;;;;;;6.87;5.20;;;24.80;49.60;;;;;;5047957;28;20549;-69
2022/08/20 08:56:51;;;;;;;5.70;4.37;;;24.80;49.70;;;;;;5043062;28;20466;-69
2022/08/20 08:59:18;;;;;;;7.20;4.90;;;24.80;49.60;;;;;;5044574;28;20469;-71
2022/08/20 09:01:51;;;;;;;6.63;6.03;;;24.80;49.50;;;;;;5048575;28;20449;-70
2022/08/20 09:04:20;;;;;;;5.53;5.10;;;24.80;49.40;;;;;;5051968;28;20995;-67
2022/08/20 09:06:48;;;;;;;6.40;5.80;;;24.80;49.20;;;;;;5045477;28;20458;-68
2022/08/20 09:09:28;;;;;;;6.47;5.87;;;24.80;48.90;;;;;;5048077;28;20449;-67
2022/08/20 09:12:01;;;;;;;6.03;5.23;;;24.80;48.90;;;;;;5043949;28;20560;-67
2022/08/20 09:14:26;;;;;;;14.40;6.50;;;24.80;48.90;;;;;;5043457;28;20805;-65
2022/08/20 09:16:52;;;;;;;6.67;5.37;;;24.80;48.90;;;;;;5044533;28;21041;-66
2022/08/20 09:19:17;;;;;;;9.00;6.30;;;24.80;48.90;;;;;;5043423;28;20214;-65
2022/08/20 09:21:43;;;;;;;6.83;5.70;;;24.80;48.90;;;;;;5049561;28;20240;-66
2022/08/20 09:24:09;;;;;;;5.67;5.17;;;24.80;49.00;;;;;;5051842;28;20225;-65
2022/08/20 09:26:34;;;;;;;5.40;5.00;;;24.80;49.00;;;;;;5047582;28;21604;-66
2022/08/20 09:29:00;;;;;;;5.43;5.10;;;24.80;48.90;;;;;;5042350;28;20224;-65
2022/08/20 09:31:26;;;;;;;7.83;5.50;;;24.80;48.90;;;;;;5045773;28;20690;-65
2022/08/20 09:33:52;;;;;;;5.63;5.07;;;24.80;48.90;;;;;;5045917;28;20683;-65
2022/08/20 09:36:18;;;;;;;6.23;5.63;;;24.80;48.90;;;;;;5050154;28;20263;-65
2022/08/20 09:38:43;;;;;;;8.20;5.90;;;24.80;48.90;;;;;;5030753;28;21799;-65
2022/08/20 09:41:09;;;;;;;5.73;5.30;;;24.70;48.80;;;;;;5037647;28;21226;-65
2022/08/20 09:43:35;;;;;;;5.40;4.93;;;24.80;49.00;;;;;;5038886;28;20224;-65
2022/08/20 09:46:01;;;;;;;5.40;4.90;;;24.80;48.90;;;;;;5045918;28;20225;-65
2022/08/20 09:48:26;;;;;;;5.87;5.30;;;24.80;48.90;;;;;;5051587;28;20221;-65
2022/08/20 09:50:52;;;;;;;6.00;5.40;;;24.80;48.90;;;;;;5058915;28;20224;-65
2022/08/20 09:53:19;;;;;;;5.47;5.07;;;24.80;48.90;;;;;;5055135;28;20219;-65
2022/08/20 09:55:50;;;;;;;5.63;5.23;;;24.80;48.90;;;;;;5054673;28;20217;-65
2022/08/20 09:58:20;;;;;;;7.20;6.23;;;24.80;48.90;;;;;;5046630;28;20462;-65
2022/08/20 10:00:46;;;;;;;5.40;5.00;;;24.70;48.80;;;;;;5051809;28;20470;-65
2022/08/20 10:03:12;;;;;;;5.57;4.90;;;24.70;48.80;;;;;;5049174;28;23261;-65
2022/08/20 10:05:38;;;;;;;5.70;5.30;;;24.80;48.90;;;;;;5046291;28;20461;-65
2022/08/20 10:08:08;;;;;;;5.60;5.13;;;24.70;48.90;;;;;;5046092;28;20568;-65
2022/08/20 10:10:34;;;;;;;5.97;5.57;;;24.80;48.90;;;;;;5048990;28;20308;-65
2022/08/20 10:13:01;;;;;;;5.40;5.00;;;24.70;48.80;;;;;;5053001;28;20540;-65
2022/08/20 10:15:27;;;;;;;6.17;5.57;;;24.70;48.80;;;;;;5045010;28;20259;-65
2022/08/20 10:17:53;;;;;;;5.07;4.67;;;24.80;48.90;;;;;;5049813;28;20469;-65
2022/08/20 10:20:19;;;;;;;11.47;5.63;;;24.70;48.80;;;;;;5045847;28;20466;-65
2022/08/20 10:22:44;;;;;;;6.00;5.60;;;24.70;48.80;;;;;;5045068;28;20241;-65
2022/08/20 10:25:11;;;;;;;4.80;4.50;;;24.70;48.80;;;;;;5048650;28;20494;-64
2022/08/20 10:27:37;;;;;;;5.03;4.63;;;24.70;48.80;;;;;;5051284;28;20334;-66
2022/08/20 10:30:05;;;;;;;6.50;6.00;;;24.70;48.80;;;;;;5049834;28;20535;-65
2022/08/20 10:32:30;;;;;;;7.13;5.67;;;24.70;48.80;;;;;;5054132;28;20450;-66
2022/08/20 10:34:56;;;;;;;6.77;5.87;;;24.80;48.90;;;;;;5048733;28;20491;-65
2022/08/20 10:37:23;;;;;;;6.17;5.27;;;24.70;48.80;;;;;;5049056;28;20226;-66
2022/08/20 10:39:49;;;;;;;6.43;5.20;;;24.70;48.80;;;;;;5045784;28;20706;-66
2022/08/20 10:42:15;;;;;;;5.40;5.00;;;24.70;48.80;;;;;;5048287;28;20603;-66
2022/08/20 10:44:41;;;;;;;5.53;5.10;;;24.70;48.80;;;;;;5050648;28;20265;-65
2022/08/20 10:47:22;;;;;;;5.67;5.17;;;24.70;48.80;;;;;;5051358;28;20221;-65
2022/08/20 10:49:50;;;;;;;5.57;5.17;;;24.70;48.80;;;;;;5048883;28;21239;-65
2022/08/20 10:52:15;;;;;;;5.03;4.60;;;24.70;48.80;;;;;;5048066;28;20439;-65
2022/08/20 10:54:41;;;;;;;5.93;5.33;;;24.70;48.80;;;;;;5048389;28;20774;-65
2022/08/20 10:57:12;;;;;;;6.13;5.10;;;24.70;48.80;;;;;;5053595;28;20228;-65
2022/08/20 10:59:39;;;;;;;5.60;5.10;;;24.70;48.80;;;;;;5047426;28;20233;-66
2022/08/20 11:02:04;;;;;;;5.63;5.23;;;24.70;48.80;;;;;;5049066;28;21561;-65
2022/08/20 11:04:30;;;;;;;5.40;5.00;;;24.70;48.80;;;;;;5044604;28;20458;-65
2022/08/20 11:06:56;;;;;;;6.20;5.70;;;24.70;48.80;;;;;;5044149;28;20804;-65
2022/08/20 11:09:21;;;;;;;5.70;5.30;;;24.70;48.80;;;;;;5047138;28;20224;-65
2022/08/20 11:11:47;;;;;;;5.30;4.90;;;24.70;48.80;;;;;;5046365;28;20807;-65
2022/08/20 11:14:12;;;;;;;5.97;5.47;;;24.70;48.80;;;;;;5050164;28;20258;-64
2022/08/20 11:16:38;;;;;;;6.60;6.10;;;24.70;48.80;;;;;;5048995;28;20217;-65
2022/08/20 11:19:03;;;;;;;6.43;5.90;;;24.70;48.80;;;;;;5060725;28;20224;-65
2022/08/20 11:21:29;;;;;;;5.77;5.37;;;24.70;48.80;;;;;;5052944;28;20691;-65
2022/08/20 11:23:55;;;;;;;6.53;5.93;;;24.70;49.60;;;;;;5058600;28;20352;-64
2022/08/20 11:26:23;;;;;;;6.73;6.33;;;24.70;48.80;;;;;;5054284;28;20222;-65
2022/08/20 11:28:49;;;;;;;6.20;5.80;;;24.70;48.80;;;;;;5045250;28;20237;-65
2022/08/20 11:31:15;;;;;;;6.00;5.50;;;24.70;48.80;;;;;;5055296;28;20501;-65
2022/08/20 11:33:40;;;;;;;5.30;5.00;;;24.70;48.80;;;;;;5061504;28;20684;-65
2022/08/20 11:36:06;;;;;;;6.53;6.13;;;24.70;48.80;;;;;;5054730;28;20233;-65
2022/08/20 11:38:32;;;;;;;6.67;6.17;;;24.70;48.80;;;;;;5059643;28;20274;-65
2022/08/20 11:40:57;;;;;;;6.07;5.67;;;24.70;49.60;;;;;;5055112;28;20481;-64
2022/08/20 11:43:23;;;;;;;7.47;6.90;;;24.70;49.60;;;;;;5059522;28;20235;-65
2022/08/20 11:45:52;;;;;;;7.83;7.30;;;24.70;48.80;;;;;;5054769;28;20233;-65
2022/08/20 11:48:18;;;;;;;7.50;6.80;;;24.70;48.80;;;;;;5058588;28;20225;-65
2022/08/20 11:50:45;;;;;;;8.10;7.43;;;24.70;48.80;;;;;;5049283;28;21414;-65
2022/08/20 11:53:10;;;;;;;7.57;6.87;;;24.70;48.80;;;;;;5054561;28;20213;-65
2022/08/20 11:55:36;;;;;;;7.93;7.00;;;24.70;48.80;;;;;;5053661;28;20461;-65
2022/08/20 11:58:02;;;;;;;7.03;6.60;;;24.70;48.80;;;;;;5056629;28;20268;-64
2022/08/20 12:00:29;;;;;;;6.30;6.00;;;24.70;48.80;;;;;;5057776;28;20596;-65
2022/08/20 12:02:55;;;;;;;6.63;6.23;;;24.70;48.80;;;;;;5053174;28;20984;-65
2022/08/20 12:05:21;;;;;;;7.30;6.80;;;24.70;48.80;;;;;;5048469;28;20443;-65
2022/08/20 12:07:47;;;;;;;7.00;6.40;;;24.70;48.80;;;;;;5053758;28;20217;-64
2022/08/20 12:10:13;;;;;;;7.47;6.90;;;24.70;48.80;;;;;;5054074;28;20232;-65
2022/08/20 12:12:39;;;;;;;6.73;6.30;;;24.70;48.80;;;;;;5055912;28;20231;-65
2022/08/20 12:15:07;;;;;;;7.60;7.10;;;24.70;48.80;;;;;;5039558;28;20458;-65
2022/08/20 12:17:33;;;;;;;7.37;6.63;;;24.70;48.80;;;;;;5043647;28;20486;-66
2022/08/20 12:20:01;;;;;;;7.80;7.30;;;24.70;48.90;;;;;;5044373;28;20541;-65
2022/08/20 12:22:27;;;;;;;7.00;6.60;;;24.70;48.80;;;;;;5041625;28;20238;-65
2022/08/20 12:24:53;;;;;;;7.90;7.30;;;24.70;48.80;;;;;;5043434;28;21578;-66
2022/08/20 12:27:22;;;;;;;7.70;7.20;;;24.70;48.80;;;;;;5044419;28;20231;-66
2022/08/20 12:29:51;;;;;;;7.77;7.20;;;24.70;48.80;;;;;;5045993;28;20454;-66
2022/08/20 12:32:18;;;;;;;7.90;7.30;;;24.70;48.80;;;;;;5042517;28;20471;-66
2022/08/20 12:34:44;;;;;;;6.47;5.97;;;24.70;48.80;;;;;;5047685;28;20961;-65
2022/08/20 12:37:15;;;;;;;7.90;7.40;;;24.70;48.90;;;;;;5050419;28;20462;-65
2022/08/20 12:39:44;;;;;;;8.23;7.60;;;24.70;48.90;;;;;;5046181;28;20930;-66
2022/08/20 12:42:11;;;;;;;7.40;6.90;;;24.70;48.80;;;;;;5047832;28;20465;-67
2022/08/20 12:44:38;;;;;;;8.83;8.23;;;24.70;48.80;;;;;;5054110;28;20453;-66
2022/08/20 12:47:22;;;;;;;7.43;6.93;;;24.70;48.80;;;;;;5051456;28;20465;-66
2022/08/20 12:49:51;;;;;;;8.00;7.50;;;24.70;48.80;;;;;;5048322;28;20465;-67
2022/08/20 12:52:19;;;;;;;8.17;7.67;;;24.70;48.80;;;;;;5047991;28;20488;-66
2022/08/20 12:54:44;;;;;;;8.40;7.60;;;24.80;48.90;;;;;;5044564;28;21326;-66
2022/08/20 12:57:32;;;;;;;8.20;7.50;;;24.80;49.00;;;;;;5047916;28;20467;-65